Time;durP1;ratioP1;P1;durP2;ratioP2;P2;SDS_P1;SDS_P2;PMS_P1;PMS_P2;Temp;Humidity;BMP_temperature;BMP_pressure;BME280_temperature;BME280_humidity;BME280_pressure;Samples;Min_cycle;Max_cycle;Signal;HPM_P1;HPM_P2
2020/12/27 04:32:18;;;;;;;9.00;6.60;;;;;;;2.25;53.16;98160.16;7518934;22;20264;-80
2020/12/27 04:35:39;;;;;;;6.50;5.77;;;;;;;2.92;52.97;98160.44;6923606;28;20207;-78
2020/12/27 04:39:00;;;;;;;5.90;5.27;;;;;;;3.07;51.83;98149.91;6935413;28;20219;-80
2020/12/27 04:42:22;;;;;;;7.63;6.40;;;;;;;2.54;52.54;98134.63;6939243;28;20223;-81
2020/12/27 04:45:44;;;;;;;6.03;5.30;;;;;;;2.67;52.64;98142.88;6936927;28;20212;-81
2020/12/27 04:49:07;;;;;;;10.20;5.70;;;;;;;2.99;51.86;98120.63;6932730;28;20215;-82
2020/12/27 04:52:32;;;;;;;7.80;6.40;;;;;;;2.98;51.93;98119.81;6938276;28;20223;-81
2020/12/27 04:55:53;;;;;;;7.27;6.00;;;;;;;2.83;52.05;98057.66;6959878;28;20199;-81
2020/12/27 04:59:14;;;;;;;7.17;6.30;;;;;;;3.30;50.82;98106.28;6955228;28;20231;-80
2020/12/27 05:02:35;;;;;;;9.57;6.40;;;;;;;3.29;51.24;98109.13;6938873;28;20290;-81
2020/12/27 05:05:57;;;;;;;10.13;5.80;;;;;;;3.15;50.80;98089.44;6946432;28;20230;-80
2020/12/27 05:09:24;;;;;;;8.27;6.03;;;;;;;2.80;51.99;98046.53;6946644;28;20191;-81
2020/12/27 05:12:45;;;;;;;7.17;6.30;;;;;;;2.87;52.26;98085.59;6935053;28;20247;-80
2020/12/27 05:16:06;;;;;;;9.03;6.33;;;;;;;2.17;53.50;98059.09;6932670;28;20203;-80
2020/12/27 05:19:28;;;;;;;8.57;5.90;;;;;;;2.20;55.43;98078.19;6917826;28;20266;-77
2020/12/27 05:22:50;;;;;;;9.63;7.00;;;;;;;2.70;53.62;98064.53;6917458;28;20220;-77
2020/12/27 05:26:11;;;;;;;8.13;6.43;;;;;;;2.38;54.19;98044.25;6919000;28;20242;-79
2020/12/27 05:29:33;;;;;;;9.23;6.20;;;;;;;2.32;55.19;98050.28;6917777;28;20206;-77
2020/12/27 05:32:55;;;;;;;7.97;6.47;;;;;;;2.59;53.42;98033.84;6916684;28;20259;-77
2020/12/27 05:36:16;;;;;;;7.10;5.67;;;;;;;2.59;54.24;98031.19;6917577;28;20211;-77
2020/12/27 05:39:38;;;;;;;12.43;5.90;;;;;;;2.25;54.95;98038.63;6917756;28;20263;-77
2020/12/27 05:42:59;;;;;;;9.00;6.27;;;;;;;2.65;54.33;98032.34;6916769;28;20231;-77
2020/12/27 05:46:20;;;;;;;7.00;6.30;;;;;;;2.68;53.68;98026.66;6915554;28;20218;-78
2020/12/27 05:49:41;;;;;;;7.13;5.90;;;;;;;2.70;52.73;98008.66;6916615;28;20272;-77
2020/12/27 05:53:15;;;;;;;8.73;6.60;;;;;;;2.17;54.36;98009.44;6916478;28;20259;-77
2020/12/27 05:56:39;;;;;;;7.43;5.00;;;;;;;2.08;53.94;97983.06;6916655;28;20560;-80
2020/12/27 06:00:03;;;;;;;7.73;6.60;;;;;;;1.88;55.15;97972.00;6915735;28;20261;-80
2020/12/27 06:03:26;;;;;;;7.50;6.70;;;;;;;2.09;54.65;97955.47;6920463;28;20222;-78
2020/12/27 06:07:08;;;;;;;7.47;6.33;;;;;;;2.54;53.34;97953.72;6943944;28;20206;-77
2020/12/27 06:10:32;;;;;;;10.07;7.20;;;;;;;2.22;52.90;97945.94;6936692;28;20243;-78
2020/12/27 06:14:35;;;;;;;9.03;6.47;;;;;;;2.00;52.72;97941.38;6916419;28;20222;-77
2020/12/27 06:18:08;;;;;;;7.43;6.07;;;;;;;2.81;51.34;97931.91;6916430;28;20199;-80
2020/12/27 06:21:30;;;;;;;8.30;6.67;;;;;;;2.24;51.35;97919.19;6915600;28;20565;-77
2020/12/27 06:24:51;;;;;;;8.37;6.97;;;;;;;1.95;52.25;97898.53;6930623;28;20567;-77
2020/12/27 06:28:13;;;;;;;6.80;6.10;;;;;;;2.56;51.89;97892.38;6943566;28;20877;-77
2020/12/27 06:31:35;;;;;;;9.23;6.43;;;;;;;2.77;51.50;97881.91;6941592;28;20241;-77
2020/12/27 06:34:56;;;;;;;7.23;6.47;;;;;;;2.15;51.80;97875.84;6929087;28;20611;-77
2020/12/27 06:38:19;;;;;;;7.40;6.47;;;;;;;1.89;52.82;97851.41;6914681;28;20231;-79
2020/12/27 06:41:40;;;;;;;7.73;6.77;;;;;;;1.70;53.55;97837.72;6914482;28;20707;-79
2020/12/27 06:45:01;;;;;;;8.80;7.50;;;;;;;1.99;52.77;97880.41;6920199;28;20242;-81
2020/12/27 06:48:31;;;;;;;8.87;6.93;;;;;;;1.75;52.77;97861.94;6917388;28;20223;-79
2020/12/27 06:51:53;;;;;;;8.53;7.57;;;;;;;2.27;52.55;97857.66;6906041;28;20227;-79
2020/12/27 06:55:32;;;;;;;8.50;6.67;;;;;;;2.42;51.29;97855.91;6915713;28;20668;-79
2020/12/27 06:59:01;;;;;;;8.47;7.43;;;;;;;2.37;51.70;97842.31;6916989;28;20200;-79
2020/12/27 07:02:23;;;;;;;8.23;6.60;;;;;;;3.00;50.46;97835.59;6930211;28;20303;-79
2020/12/27 07:05:46;;;;;;;8.10;6.60;;;;;;;2.60;50.11;97843.13;6932015;28;20207;-79
2020/12/27 07:09:08;;;;;;;8.60;6.83;;;;;;;3.06;50.31;97826.88;6918413;28;20227;-78
2020/12/27 07:12:29;;;;;;;9.17;7.70;;;;;;;2.53;50.67;97816.41;6917578;28;20223;-79
2020/12/27 07:15:52;;;;;;;8.13;6.40;;;;;;;3.19;49.45;97765.00;6921258;28;20727;-80
2020/12/27 07:19:15;;;;;;;8.03;6.50;;;;;;;2.60;50.10;97721.56;6920408;28;20196;-80
2020/12/27 07:22:37;;;;;;;7.53;6.83;;;;;;;3.33;49.71;97794.31;6919017;28;20227;-79
2020/12/27 07:26:00;;;;;;;8.33;6.43;;;;;;;3.13;49.80;97797.69;6921178;28;20764;-78
2020/12/27 07:29:23;;;;;;;8.23;6.13;;;;;;;3.31;49.71;97776.84;6920544;28;20227;-81
2020/12/27 07:32:44;;;;;;;9.73;6.27;;;;;;;2.69;51.06;97786.16;6918939;28;20239;-80
2020/12/27 07:36:07;;;;;;;11.13;6.80;;;;;;;2.76;51.24;97766.63;6918655;28;20208;-79
2020/12/27 07:39:51;;;;;;;8.47;6.50;;;;;;;2.89;50.98;97758.84;6918580;28;20223;-79
2020/12/27 07:43:13;;;;;;;9.00;6.10;;;;;;;3.12;49.39;97750.78;6917682;28;20222;-80
2020/12/27 07:46:34;;;;;;;9.37;7.20;;;;;;;3.12;50.20;97743.59;6918759;28;20211;-80
2020/12/27 07:50:11;;;;;;;9.43;6.67;;;;;;;3.72;48.94;97728.16;6918400;28;20270;-83
2020/12/27 07:53:32;;;;;;;8.90;7.03;;;;;;;3.92;48.78;97731.03;6903520;28;20188;-82
2020/12/27 08:35:46;;;;;;;6.87;6.17;;;;;;;3.92;48.07;97651.06;7219313;22;20237;-60
2020/12/27 08:39:17;;;;;;;6.63;6.00;;;;;;;4.08;48.11;97627.59;6897299;28;20211;-61
2020/12/27 08:42:41;;;;;;;7.90;7.00;;;;;;;4.40;47.57;97613.69;6882142;28;20569;-62
2020/12/27 08:46:06;;;;;;;7.07;6.37;;;;;;;4.58;47.46;97635.34;6888790;28;20543;-67
2020/12/27 08:49:39;;;;;;;8.67;6.43;;;;;;;4.23;48.41;97632.84;6886426;28;20223;-59
2020/12/27 08:53:02;;;;;;;9.90;6.67;;;;;;;4.27;48.21;97642.13;6912095;28;20207;-60
2020/12/27 08:56:23;;;;;;;7.07;6.37;;;;;;;4.03;48.98;97650.53;6885644;28;20292;-62
2020/12/27 09:00:01;;;;;;;6.60;6.00;;;;;;;4.30;47.43;97628.41;6893661;28;20192;-61
2020/12/27 09:03:22;;;;;;;11.03;6.97;;;;;;;4.10;47.77;97529.59;6898190;28;20200;-62
2020/12/27 09:06:52;;;;;;;9.10;6.03;;;;;;;5.01;47.27;97617.31;6910094;28;20208;-62
2020/12/27 09:10:20;;;;;;;8.33;7.40;;;;;;;4.91;47.41;97609.69;6891828;28;20232;-64
2020/12/27 09:13:42;;;;;;;9.33;7.07;;;;;;;5.07;46.92;97595.97;6896476;28;20286;-63
2020/12/27 09:17:05;;;;;;;8.13;6.90;;;;;;;5.21;46.15;97580.81;6908640;28;20202;-63
2020/12/27 09:20:27;;;;;;;9.37;6.53;;;;;;;4.97;46.50;97550.13;6889397;28;20197;-63
2020/12/27 09:23:48;;;;;;;10.00;6.70;;;;;;;5.11;46.45;97554.47;6918723;28;20207;-62
2020/12/27 09:27:12;;;;;;;8.13;6.60;;;;;;;4.92;47.09;97547.22;6894302;28;20231;-63
2020/12/27 09:30:33;;;;;;;11.73;6.00;;;;;;;4.99;47.62;97545.41;6907749;28;20227;-62
2020/12/27 09:33:55;;;;;;;6.30;5.70;;;;;;;4.85;45.61;97489.47;6911927;28;20303;-62
2020/12/27 09:37:18;;;;;;;7.73;5.53;;;;;;;5.21;44.36;97522.03;6883983;28;20290;-63
2020/12/27 09:40:39;;;;;;;7.50;6.00;;;;;;;5.15;44.74;97496.13;6865388;28;20587;-63
2020/12/27 09:44:02;;;;;;;6.50;5.23;;;;;;;5.10;45.16;97479.88;6864747;28;20204;-63
2020/12/27 09:47:26;;;;;;;8.43;5.40;;;;;;;4.51;46.40;97490.41;6864882;28;20209;-62
2020/12/27 09:50:47;;;;;;;6.20;5.60;;;;;;;4.68;46.49;97478.34;6863095;28;20237;-63
2020/12/27 09:54:09;;;;;;;6.00;5.20;;;;;;;5.13;45.43;97456.25;6864697;28;20225;-62
2020/12/27 09:57:30;;;;;;;6.50;5.57;;;;;;;4.75;45.66;97385.75;6874330;28;20645;-63
2020/12/27 10:00:52;;;;;;;7.37;5.63;;;;;;;4.87;45.51;97434.03;6863673;28;20206;-62
2020/12/27 10:04:14;;;;;;;6.27;5.63;;;;;;;5.10;45.15;97423.78;6877138;28;20223;-62
2020/12/27 10:07:35;;;;;;;7.07;5.70;;;;;;;5.53;44.62;97425.84;6890988;28;20581;-63
2020/12/27 10:10:57;;;;;;;6.57;5.70;;;;;;;5.58;44.67;97406.50;6888768;28;20229;-63
2020/12/27 10:14:18;;;;;;;7.57;6.73;;;;;;;5.45;44.43;97418.06;6890872;28;20734;-63
2020/12/27 10:17:41;;;;;;;9.53;6.07;;;;;;;5.45;44.48;97401.19;6875861;28;20551;-63
2020/12/27 10:21:02;;;;;;;6.63;5.90;;;;;;;4.80;45.61;97329.91;6863336;28;20313;-62
2020/12/27 10:24:24;;;;;;;8.83;6.57;;;;;;;5.62;45.78;97373.81;6876712;28;20213;-62
2020/12/27 10:27:46;;;;;;;7.00;5.97;;;;;;;5.75;44.37;97344.38;6891016;28;20214;-63
2020/12/27 10:31:09;;;;;;;6.53;5.93;;;;;;;5.66;44.19;97300.19;6889440;28;20240;-62
2020/12/27 10:34:32;;;;;;;5.63;4.87;;;;;;;5.89;43.67;97310.44;6889573;28;20234;-63
2020/12/27 10:37:53;;;;;;;7.67;6.00;;;;;;;6.18;44.03;97320.59;6886708;28;20210;-62
2020/12/27 10:41:15;;;;;;;6.70;5.57;;;;;;;5.81;44.10;97244.63;6889080;28;20198;-63
2020/12/27 10:44:36;;;;;;;8.07;6.07;;;;;;;6.11;44.51;97268.94;6890595;28;20218;-62
2020/12/27 10:48:02;;;;;;;6.07;5.37;;;;;;;5.71;44.42;97181.94;6852805;28;20212;-62
2020/12/27 10:51:24;;;;;;;6.00;4.97;;;;;;;5.39;45.04;97191.75;6852343;28;20272;-63
2020/12/27 10:54:46;;;;;;;5.53;5.03;;;;;;;5.18;45.58;97191.22;6880045;28;20621;-62
2020/12/27 10:58:07;;;;;;;5.20;4.70;;;;;;;6.01;44.63;97228.47;6879935;28;20228;-63
2020/12/27 11:01:28;;;;;;;5.90;5.30;;;;;;;5.49;44.30;97170.72;6889040;28;20574;-62
2020/12/27 11:04:49;;;;;;;8.10;5.20;;;;;;;5.89;44.95;97227.53;6864538;28;20204;-62
2020/12/27 11:08:12;;;;;;;7.23;5.13;;;;;;;6.22;43.69;97185.31;6860725;28;20203;-62
2020/12/27 11:11:33;;;;;;;5.30;4.80;;;;;;;5.96;44.38;97206.91;6888525;28;20652;-62
2020/12/27 11:14:54;;;;;;;6.40;5.20;;;;;;;6.10;44.35;97190.56;6889046;28;20208;-62
2020/12/27 11:18:16;;;;;;;6.67;5.13;;;;;;;6.44;44.30;97159.84;6867659;28;20263;-61
2020/12/27 11:21:45;;;;;;;5.90;4.87;;;;;;;6.50;44.00;97156.28;6861291;28;20304;-62
2020/12/27 11:25:07;;;;;;;5.63;5.10;;;;;;;6.19;44.82;97142.97;6862088;28;20237;-62
2020/12/27 11:28:29;;;;;;;5.63;4.93;;;;;;;6.59;44.34;97145.06;6862972;28;20234;-62
2020/12/27 11:31:52;;;;;;;5.47;4.97;;;;;;;6.45;44.78;97122.16;6864710;28;20211;-62
2020/12/27 11:35:18;;;;;;;5.53;4.87;;;;;;;6.37;45.42;97121.59;6862720;28;20323;-64
2020/12/27 11:38:39;;;;;;;6.80;5.03;;;;;;;6.72;44.86;97094.06;6861118;28;20206;-62
2020/12/27 11:42:02;;;;;;;6.67;5.13;;;;;;;6.53;44.21;97048.75;6851752;28;20219;-60
2020/12/27 11:45:23;;;;;;;5.13;4.63;;;;;;;6.53;44.97;97044.22;6853731;28;20219;-61
2020/12/27 11:48:45;;;;;;;5.90;5.17;;;;;;;7.01;44.22;97022.84;6847066;28;20309;-63
2020/12/27 11:52:06;;;;;;;7.40;5.80;;;;;;;6.75;44.61;97026.69;6840531;28;20287;-61
2020/12/27 11:55:27;;;;;;;5.40;4.43;;;;;;;7.17;44.27;97022.22;6853131;28;20218;-61
2020/12/27 11:58:49;;;;;;;4.93;4.43;;;;;;;6.85;44.88;96992.13;6840703;28;20206;-61
2020/12/27 12:02:11;;;;;;;5.03;4.63;;;;;;;6.98;44.37;96991.97;6861088;28;20211;-61
2020/12/27 12:05:38;;;;;;;6.33;5.03;;;;;;;7.57;44.12;96958.94;6876128;28;20226;-61
2020/12/27 12:08:59;;;;;;;6.33;5.57;;;;;;;7.53;43.46;96945.16;6888099;28;20221;-61
2020/12/27 12:12:20;;;;;;;6.03;5.17;;;;;;;7.42;43.34;96937.13;6885778;28;20204;-60
2020/12/27 12:15:43;;;;;;;7.13;5.50;;;;;;;7.18;44.14;96930.06;6888044;28;20214;-61
2020/12/27 12:19:05;;;;;;;4.93;4.43;;;;;;;7.29;44.27;96916.69;6864240;28;20209;-60
2020/12/27 12:22:26;;;;;;;6.63;5.00;;;;;;;7.35;43.78;96907.72;6860763;28;20215;-60
2020/12/27 12:25:48;;;;;;;5.17;4.30;;;;;;;7.74;43.20;96906.25;6861282;28;20559;-61
2020/12/27 12:29:09;;;;;;;5.10;4.60;;;;;;;7.21;44.43;96892.09;6861313;28;20233;-61
2020/12/27 12:32:31;;;;;;;5.30;4.73;;;;;;;6.66;45.49;96875.38;6883958;28;20208;-61
2020/12/27 12:35:52;;;;;;;4.77;4.30;;;;;;;6.62;44.95;96850.13;6852505;28;20270;-61
2020/12/27 12:39:13;;;;;;;5.33;4.60;;;;;;;7.01;45.20;96856.75;6861231;28;20214;-62
2020/12/27 12:42:36;;;;;;;6.83;4.50;;;;;;;6.89;46.21;96848.69;6860277;28;20215;-62
2020/12/27 12:45:57;;;;;;;11.30;4.33;;;;;;;7.25;44.39;96826.28;6858600;28;20677;-61
2020/12/27 12:49:20;;;;;;;4.70;4.30;;;;;;;6.64;45.86;96829.28;6855494;28;20264;-60
2020/12/27 12:53:13;;;;;;;5.23;4.73;;;;;;;6.34;46.13;96822.31;6850247;28;20216;-63
2020/12/27 12:56:50;;;;;;;5.27;4.77;;;;;;;6.85;45.21;96801.19;6845773;28;20211;-61
2020/12/27 13:00:12;;;;;;;4.30;3.90;;;;;;;6.19;45.91;96755.84;6862487;28;20293;-61
2020/12/27 13:03:34;;;;;;;10.70;4.37;;;;;;;6.12;46.67;96773.00;6881263;28;20216;-62
2020/12/27 13:06:56;;;;;;;5.47;4.73;;;;;;;6.56;45.90;96768.06;6876646;28;20214;-61
2020/12/27 13:10:30;;;;;;;4.83;4.40;;;;;;;7.24;44.85;96752.28;6865007;28;20243;-61
2020/12/27 13:13:54;;;;;;;5.13;4.60;;;;;;;7.20;44.19;96733.16;6856302;28;20213;-63
2020/12/27 13:17:16;;;;;;;7.40;4.53;;;;;;;7.40;44.35;96728.25;6864601;28;20303;-62
2020/12/27 13:20:41;;;;;;;4.50;4.10;;;;;;;7.28;43.83;96721.28;6858249;28;20250;-62
2020/12/27 13:24:03;;;;;;;4.30;3.90;;;;;;;7.34;44.47;96696.22;6840024;28;20217;-62
2020/12/27 13:27:25;;;;;;;4.70;4.30;;;;;;;6.59;45.05;96668.53;6863386;28;20219;-62
2020/12/27 13:30:51;;;;;;;6.20;4.43;;;;;;;6.31;45.65;96680.97;6858424;28;20838;-62
2020/12/27 13:34:12;;;;;;;4.40;3.90;;;;;;;6.42;45.88;96656.88;6864347;28;20701;-61
2020/12/27 13:37:35;;;;;;;4.77;4.00;;;;;;;6.33;46.42;96663.63;6864321;28;20579;-62
2020/12/27 13:40:57;;;;;;;5.50;4.33;;;;;;;6.82;45.94;96662.38;6864208;28;20199;-61
2020/12/27 13:44:18;;;;;;;4.80;4.30;;;;;;;7.12;45.17;96663.88;6863949;28;20222;-61
2020/12/27 13:47:40;;;;;;;7.13;5.37;;;;;;;6.82;46.49;96652.47;6850963;28;20580;-62
2020/12/27 13:51:08;;;;;;;5.30;4.30;;;;;;;6.34;46.15;96632.31;6848936;28;20579;-61
2020/12/27 13:54:42;;;;;;;7.07;5.27;;;;;;;6.57;46.31;96635.03;6864943;28;20218;-61
2020/12/27 13:58:04;;;;;;;4.80;4.30;;;;;;;6.87;45.53;96649.94;6863876;28;20219;-62
2020/12/27 14:01:26;;;;;;;6.07;4.67;;;;;;;7.10;44.53;96636.50;6864782;28;20208;-62
2020/12/27 14:04:47;;;;;;;5.23;4.20;;;;;;;7.24;45.09;96642.44;6864916;28;20300;-61
2020/12/27 14:08:08;;;;;;;6.03;5.50;;;;;;;7.32;45.99;96624.06;6888061;28;20257;-61
2020/12/27 14:11:30;;;;;;;5.30;4.80;;;;;;;6.57;46.24;96605.56;6863608;28;20231;-61
2020/12/27 14:14:52;;;;;;;7.43;5.93;;;;;;;5.68;49.15;96621.81;6884585;28;20216;-60
2020/12/27 14:18:16;;;;;;;6.33;5.30;;;;;;;5.68;48.63;96578.22;6866864;28;20206;-61
2020/12/27 14:21:40;;;;;;;6.43;5.70;;;;;;;6.25;47.77;96589.03;6862092;28;20210;-60
2020/12/27 14:25:04;;;;;;;7.97;4.83;;;;;;;7.13;46.51;96574.41;6862141;28;20215;-61
2020/12/27 14:28:26;;;;;;;5.63;4.80;;;;;;;7.25;45.52;96552.94;6863364;28;20673;-61
2020/12/27 14:31:48;;;;;;;5.57;4.90;;;;;;;6.64;46.48;96561.59;6859000;28;20208;-61
2020/12/27 14:35:09;;;;;;;6.67;5.23;;;;;;;7.41;45.26;96546.78;6862764;28;20238;-61
2020/12/27 14:38:31;;;;;;;8.17;5.73;;;;;;;7.25;45.17;96526.16;6857366;28;20197;-61
2020/12/27 14:41:55;;;;;;;8.43;6.63;;;;;;;7.91;45.24;96534.28;6861477;28;20618;-61
2020/12/27 14:45:16;;;;;;;14.23;7.90;;;;;;;7.85;44.84;96532.56;6863865;28;20266;-61
2020/12/27 14:48:38;;;;;;;11.93;7.53;;;;;;;6.83;45.87;96530.13;6855568;28;20206;-61
2020/12/27 14:51:59;;;;;;;10.07;6.80;;;;;;;7.74;45.36;96503.97;6854360;28;20271;-61
2020/12/27 14:55:21;;;;;;;7.70;6.23;;;;;;;7.58;44.36;96465.34;6858700;28;20205;-61
2020/12/27 14:58:42;;;;;;;6.40;5.00;;;;;;;7.55;44.12;96489.16;6867047;28;20224;-61
2020/12/27 15:02:03;;;;;;;6.50;4.40;;;;;;;7.44;43.94;96457.88;6861953;28;20205;-61
2020/12/27 15:05:25;;;;;;;5.47;4.83;;;;;;;7.54;43.89;96458.84;6795033;28;20254;-61
2020/12/27 15:08:47;;;;;;;4.80;4.40;;;;;;;6.62;45.35;96445.09;6815239;28;20660;-61
2020/12/27 15:12:08;;;;;;;4.87;4.47;;;;;;;7.14;44.61;96451.97;6786290;29;20232;-62
2020/12/27 15:15:30;;;;;;;4.80;4.27;;;;;;;7.37;44.21;96431.22;6803392;29;20243;-61
2020/12/27 15:18:51;;;;;;;5.67;4.63;;;;;;;6.65;44.72;96415.97;6809022;29;20211;-62
2020/12/27 15:22:13;;;;;;;5.37;4.40;;;;;;;6.93;45.13;96399.91;6811949;29;20238;-61
2020/12/27 15:25:34;;;;;;;8.33;5.67;;;;;;;6.99;43.50;96392.75;6811114;29;20212;-61
2020/12/27 15:28:55;;;;;;;5.00;4.50;;;;;;;6.79;44.00;96379.81;6835698;28;20227;-61
2020/12/27 15:32:17;;;;;;;4.77;4.37;;;;;;;6.89;44.28;96371.97;6835302;28;20215;-61
2020/12/27 15:35:38;;;;;;;4.40;4.00;;;;;;;6.95;43.91;96330.03;6835515;28;20226;-61
2020/12/27 15:39:00;;;;;;;8.70;5.60;;;;;;;7.35;42.59;96323.47;6835509;29;20207;-61
2020/12/27 15:42:21;;;;;;;7.30;4.20;;;;;;;7.47;41.85;96275.94;6832923;28;20848;-61
2020/12/27 15:45:43;;;;;;;5.27;4.03;;;;;;;6.86;42.18;96264.53;6835272;28;20214;-61
2020/12/27 15:49:04;;;;;;;4.57;3.93;;;;;;;7.21;42.31;96279.31;6835234;28;20243;-61
2020/12/27 15:52:25;;;;;;;4.43;4.03;;;;;;;7.20;42.61;96279.53;6833711;28;20223;-61
2020/12/27 15:55:48;;;;;;;3.70;3.40;;;;;;;7.13;42.58;96265.50;6789472;28;20726;-61
2020/12/27 15:59:09;;;;;;;4.40;4.00;;;;;;;6.91;43.17;96256.59;6788448;29;20250;-60
2020/12/27 16:02:30;;;;;;;4.93;4.30;;;;;;;6.79;43.30;96251.28;6803684;29;20205;-62
2020/12/27 16:05:51;;;;;;;4.97;4.40;;;;;;;6.69;43.55;96235.09;6808556;29;20296;-62
2020/12/27 16:09:13;;;;;;;4.80;4.40;;;;;;;6.52;43.98;96225.41;6808372;29;20238;-60
2020/12/27 16:12:35;;;;;;;4.43;4.03;;;;;;;6.34;44.03;96217.59;6821601;29;20734;-60
2020/12/27 16:15:56;;;;;;;5.33;4.30;;;;;;;6.62;42.89;96183.59;6834787;29;20641;-61
2020/12/27 16:19:18;;;;;;;4.80;4.33;;;;;;;6.83;43.09;96188.19;6834747;29;20211;-60
2020/12/27 16:22:39;;;;;;;4.60;4.10;;;;;;;6.66;42.81;96175.88;6817250;29;20560;-61
2020/12/27 16:26:00;;;;;;;4.73;4.27;;;;;;;6.69;42.64;96178.88;6810227;29;20615;-60
2020/12/27 16:29:22;;;;;;;8.87;5.10;;;;;;;6.44;42.72;96158.91;6808275;29;20230;-60
2020/12/27 16:32:44;;;;;;;5.60;4.13;;;;;;;6.38;44.12;96144.63;6811732;29;20235;-60
2020/12/27 16:36:13;;;;;;;4.93;4.20;;;;;;;6.27;43.63;96140.19;6813152;29;20587;-60
2020/12/27 16:39:34;;;;;;;4.90;4.40;;;;;;;6.41;43.00;96113.91;6813638;29;20220;-60
2020/12/27 16:42:56;;;;;;;6.27;4.80;;;;;;;6.45;43.74;96109.69;6813039;29;20570;-60
2020/12/27 16:46:18;;;;;;;6.77;4.70;;;;;;;6.97;42.48;96097.59;6820018;29;20208;-61
2020/12/27 16:49:40;;;;;;;8.87;5.03;;;;;;;6.28;43.71;96058.06;6823257;29;20233;-61
2020/12/27 16:53:01;;;;;;;5.73;4.00;;;;;;;6.78;42.68;96090.94;6813058;29;20243;-61
2020/12/27 16:56:26;;;;;;;5.27;4.60;;;;;;;6.84;42.87;96077.34;6813157;29;20214;-62
2020/12/27 16:59:47;;;;;;;5.60;4.77;;;;;;;7.07;42.50;96066.38;6830281;29;20212;-60
2020/12/27 17:03:09;;;;;;;6.37;4.53;;;;;;;7.06;42.43;96056.75;6821341;29;20244;-60
2020/12/27 17:06:30;;;;;;;8.53;4.83;;;;;;;7.06;42.40;96053.25;6834280;28;20210;-60
2020/12/27 17:09:51;;;;;;;7.40;5.13;;;;;;;6.96;42.08;96043.22;6810289;29;20230;-60
2020/12/27 17:13:13;;;;;;;5.40;4.43;;;;;;;7.23;41.83;96036.03;6812752;29;20215;-60
2020/12/27 17:16:35;;;;;;;5.80;3.83;;;;;;;7.37;41.97;96001.63;6829601;29;20617;-59
2020/12/27 17:19:57;;;;;;;5.17;4.20;;;;;;;7.24;41.12;96016.22;6836243;29;20288;-61
2020/12/27 17:23:19;;;;;;;5.13;4.10;;;;;;;7.13;41.47;96011.81;6839024;29;20311;-61
2020/12/27 17:26:40;;;;;;;3.90;3.50;;;;;;;7.20;40.79;95996.34;6836813;28;20206;-61
2020/12/27 17:30:01;;;;;;;4.10;3.67;;;;;;;7.29;40.63;95994.84;6819083;28;20227;-61
2020/12/27 17:33:22;;;;;;;4.20;3.90;;;;;;;7.43;40.89;95982.66;6812899;29;20217;-61
2020/12/27 17:36:44;;;;;;;4.43;4.03;;;;;;;7.27;41.15;95980.91;6829103;29;20236;-61
2020/12/27 17:40:10;;;;;;;4.83;3.73;;;;;;;7.30;41.34;95963.53;6813969;29;20670;-62
2020/12/27 17:43:31;;;;;;;5.43;3.50;;;;;;;7.64;40.56;95971.06;6811940;29;20614;-62
2020/12/27 17:46:52;;;;;;;4.20;3.67;;;;;;;7.66;39.62;95970.81;6812808;29;20218;-62
2020/12/27 17:50:13;;;;;;;3.83;3.43;;;;;;;7.72;39.25;95948.34;6810929;29;20227;-60
2020/12/27 17:53:36;;;;;;;5.70;4.57;;;;;;;7.67;39.79;95948.31;6820152;29;20214;-60
2020/12/27 17:56:57;;;;;;;5.60;4.60;;;;;;;7.70;40.02;95943.22;6823196;29;20558;-60
2020/12/27 18:00:18;;;;;;;4.03;3.70;;;;;;;7.83;39.58;95934.75;6837334;28;20211;-60
2020/12/27 18:03:40;;;;;;;4.00;3.60;;;;;;;7.94;39.31;95908.78;6837991;29;20206;-60
2020/12/27 18:07:01;;;;;;;5.00;3.57;;;;;;;8.02;38.87;95911.00;6822890;29;20215;-60
2020/12/27 18:10:23;;;;;;;5.47;3.77;;;;;;;8.10;38.67;95905.97;6816222;29;20622;-61
2020/12/27 18:13:44;;;;;;;4.47;4.07;;;;;;;8.07;39.13;95895.72;6811198;29;20573;-60
2020/12/27 18:17:06;;;;;;;3.87;3.53;;;;;;;8.27;38.91;95905.81;6831550;29;20286;-60
2020/12/27 18:20:27;;;;;;;4.60;3.87;;;;;;;8.23;39.03;95893.97;6836799;29;20212;-61
2020/12/27 18:23:48;;;;;;;4.20;3.80;;;;;;;8.17;38.93;95894.97;6835162;28;20668;-62
2020/12/27 18:27:11;;;;;;;3.40;3.10;;;;;;;8.44;38.74;95890.31;6818446;29;20206;-62
2020/12/27 18:30:32;;;;;;;3.67;3.37;;;;;;;8.56;38.71;95881.00;6809206;29;20257;-61
2020/12/27 18:33:54;;;;;;;4.63;3.50;;;;;;;8.68;37.89;95886.13;6809927;29;20228;-61
2020/12/27 18:37:15;;;;;;;3.33;2.87;;;;;;;8.62;38.46;95871.88;6809617;29;20284;-61
2020/12/27 18:40:36;;;;;;;2.60;2.40;;;;;;;8.74;37.67;95864.41;6810061;29;20211;-61
2020/12/27 18:43:59;;;;;;;3.00;2.80;;;;;;;9.18;37.01;95877.09;6810095;29;20219;-60
2020/12/27 18:47:20;;;;;;;2.97;2.77;;;;;;;9.13;36.57;95857.47;6822424;29;20215;-65
2020/12/27 18:50:41;;;;;;;2.67;2.47;;;;;;;9.43;36.54;95865.53;6809157;29;20289;-61
2020/12/27 18:54:03;;;;;;;3.87;3.13;;;;;;;9.80;35.53;95864.16;6810673;29;20212;-61
2020/12/27 18:57:24;;;;;;;3.33;3.03;;;;;;;9.56;36.28;95836.22;6831889;29;20229;-61
2020/12/27 19:00:47;;;;;;;2.80;2.60;;;;;;;9.80;35.90;95841.88;6835560;29;20217;-62
2020/12/27 19:04:10;;;;;;;3.30;3.00;;;;;;;9.63;36.31;95847.50;6827349;29;20213;-61
2020/12/27 19:07:31;;;;;;;3.80;3.10;;;;;;;9.81;36.13;95844.25;6813880;29;20217;-60
2020/12/27 19:10:53;;;;;;;5.33;3.73;;;;;;;9.28;37.88;95806.41;6793281;29;20592;-61
2020/12/27 19:14:17;;;;;;;4.67;3.37;;;;;;;9.77;36.88;95812.81;6800473;29;20230;-61
2020/12/27 19:17:40;;;;;;;3.13;2.83;;;;;;;9.84;36.12;95808.75;6789177;29;20229;-61
2020/12/27 19:21:01;;;;;;;3.17;2.93;;;;;;;10.02;35.66;95781.25;6798213;29;20210;-61
2020/12/27 19:24:26;;;;;;;7.47;5.00;;;;;;;10.23;36.80;95779.31;6801336;29;20203;-61
2020/12/27 19:27:48;;;;;;;10.07;5.93;;;;;;;10.07;36.96;95781.28;6797780;29;20213;-62
2020/12/27 19:31:11;;;;;;;7.17;5.40;;;;;;;9.98;37.31;95765.94;6808278;29;20230;-62
2020/12/27 19:34:33;;;;;;;6.37;4.60;;;;;;;9.81;37.48;95760.06;6832620;28;20222;-62
2020/12/27 19:37:57;;;;;;;7.43;4.60;;;;;;;9.67;38.00;95754.47;6818294;29;20209;-63
2020/12/27 19:41:23;;;;;;;5.67;4.37;;;;;;;9.40;38.10;95739.75;6829156;28;20566;-62
2020/12/27 19:44:53;;;;;;;5.63;4.23;;;;;;;9.51;38.03;95755.56;6809011;29;20239;-62
2020/12/27 19:48:15;;;;;;;4.33;3.70;;;;;;;9.32;38.06;95742.97;6808647;29;20213;-62
2020/12/27 19:51:38;;;;;;;3.97;3.60;;;;;;;9.08;37.52;95740.03;6807797;29;20320;-64
2020/12/27 19:54:59;;;;;;;3.30;3.00;;;;;;;9.10;37.07;95704.84;6809079;29;20785;-62
2020/12/27 19:58:23;;;;;;;3.17;2.90;;;;;;;9.20;37.75;95734.38;6809881;29;20210;-64
2020/12/27 20:01:53;;;;;;;3.40;3.10;;;;;;;9.28;37.70;95736.53;6812256;29;20220;-66
2020/12/27 20:05:15;;;;;;;3.40;3.07;;;;;;;9.26;37.83;95733.28;6812821;28;20206;-62
2020/12/27 20:08:37;;;;;;;4.67;3.30;;;;;;;9.26;37.96;95734.09;6812473;29;20215;-59
2020/12/27 20:12:17;;;;;;;3.77;3.47;;;;;;;9.29;38.38;95732.75;6834297;28;20587;-59
2020/12/27 20:15:39;;;;;;;4.10;3.70;;;;;;;9.08;38.86;95696.22;6814451;29;20583;-59
2020/12/27 20:19:01;;;;;;;8.20;5.57;;;;;;;9.26;39.89;95695.66;6809469;29;20609;-59
2020/12/27 20:22:25;;;;;;;3.50;3.20;;;;;;;9.40;40.32;95699.41;6794579;29;20214;-63
2020/12/27 20:25:47;;;;;;;9.33;8.37;;;;;;;9.32;40.36;95699.94;6772137;29;20297;-60
2020/12/27 20:29:08;;;;;;;6.03;5.50;;;;;;;9.12;42.06;95681.19;6808073;29;20230;-61
2020/12/27 20:32:29;;;;;;;8.97;8.07;;;;;;;9.13;42.26;95684.69;6807379;29;20210;-61
2020/12/27 20:35:51;;;;;;;5.00;4.50;;;;;;;9.43;42.00;95701.53;6808095;29;20275;-61
2020/12/27 20:39:12;;;;;;;6.73;4.60;;;;;;;9.42;41.82;95706.13;6808206;29;20214;-61
2020/12/27 20:42:34;;;;;;;4.27;3.83;;;;;;;9.65;41.99;95723.53;6806809;29;20213;-62
2020/12/27 20:45:55;;;;;;;6.57;5.00;;;;;;;9.24;43.33;95697.81;6807468;29;20210;-61
2020/12/27 20:49:17;;;;;;;5.30;4.30;;;;;;;9.46;43.73;95719.81;6813511;29;20237;-62
2020/12/27 20:52:38;;;;;;;4.60;4.20;;;;;;;9.35;44.83;95726.31;6833744;29;20216;-61
2020/12/27 20:55:59;;;;;;;6.10;5.60;;;;;;;9.07;45.72;95712.66;6806661;29;20261;-61
2020/12/27 20:59:21;;;;;;;4.87;3.17;;;;;;;9.10;48.20;95726.34;6802914;29;20650;-62
2020/12/27 21:02:42;;;;;;;3.20;2.90;;;;;;;9.59;49.37;95730.00;6793681;29;20669;-61
2020/12/27 21:06:04;;;;;;;4.73;2.50;;;;;;;9.86;48.76;95693.59;6808066;29;20733;-62
2020/12/27 21:09:25;;;;;;;2.30;2.10;;;;;;;10.02;48.68;95688.94;6788302;29;20227;-62
2020/12/27 21:12:47;;;;;;;2.80;2.33;;;;;;;10.46;48.89;95689.81;6795650;29;20206;-62
2020/12/27 21:16:09;;;;;;;2.27;2.17;;;;;;;10.33;48.96;95679.66;6802768;29;20210;-62